createdAt,value
2019-05-23T00:05:05.818Z,11.09
2019-05-23T00:10:35.669Z,11.13
2019-05-23T00:15:58.692Z,11.15
2019-05-23T00:21:05.694Z,11.15
2019-05-23T00:26:11.860Z,11.17
2019-05-23T00:31:24.040Z,11.18
2019-05-23T00:36:31.627Z,10.96
2019-05-23T00:41:39.554Z,11.11
2019-05-23T00:46:45.373Z,10.97
2019-05-23T00:51:51.151Z,10.99
2019-05-23T00:56:58.825Z,11.03
2019-05-23T01:02:06.068Z,10.95
2019-05-23T01:07:12.614Z,10.87
2019-05-23T01:12:19.640Z,10.99
2019-05-23T01:17:27.455Z,10.90
2019-05-23T01:22:33.318Z,11.07
2019-05-23T01:27:38.899Z,11.08
2019-05-23T01:32:47.740Z,11.00
2019-05-23T01:37:53.518Z,11.04
2019-05-23T01:42:59.976Z,10.87
2019-05-23T01:48:05.978Z,10.91
2019-05-23T01:53:12.538Z,11.03
2019-05-23T01:58:18.017Z,10.78
2019-05-23T02:03:23.860Z,10.84
2019-05-23T02:08:32.086Z,10.93
2019-05-23T02:13:37.984Z,11.02
2019-05-23T02:18:43.631Z,10.94
2019-05-23T02:23:49.690Z,10.99
2019-05-23T02:28:55.412Z,10.83
2019-05-23T02:34:01.560Z,10.76
2019-05-23T02:39:26.079Z,10.65
2019-05-23T02:44:34.146Z,10.62
2019-05-23T02:49:39.385Z,10.54
2019-05-23T02:54:44.673Z,10.72
2019-05-23T02:59:53.005Z,10.60
2019-05-23T03:04:59.863Z,10.50
2019-05-23T03:10:07.390Z,10.55
2019-05-23T03:15:15.911Z,10.40
2019-05-23T03:20:22.179Z,10.42
2019-05-23T03:26:15.585Z,10.32
2019-05-23T03:31:31.557Z,10.28
2019-05-23T03:36:35.673Z,10.19
2019-05-23T03:41:42.505Z,10.21
2019-05-23T03:46:49.955Z,10.26
2019-05-23T03:51:55.655Z,10.32
2019-05-23T03:57:02.825Z,10.36
2019-05-23T04:02:09.791Z,10.49
2019-05-23T04:07:15.731Z,10.48
2019-05-23T04:12:21.050Z,10.60
2019-05-23T04:17:26.620Z,10.41
2019-05-23T04:22:31.817Z,10.48
2019-05-23T04:27:37.899Z,10.44
2019-05-23T04:32:43.743Z,10.51
2019-05-23T04:37:49.250Z,10.42
2019-05-23T04:42:54.693Z,10.64
2019-05-23T04:48:00.319Z,10.65
2019-05-23T04:53:06.733Z,10.66
2019-05-23T04:58:13.721Z,10.56
2019-05-23T05:03:19.832Z,10.80
2019-05-23T05:08:25.319Z,10.83
2019-05-23T05:13:30.766Z,10.89
2019-05-23T05:18:37.557Z,10.65
2019-05-23T05:23:42.813Z,10.83
2019-05-23T05:28:48.097Z,11.05
2019-05-23T05:33:53.371Z,11.06
2019-05-23T05:38:59.578Z,10.99
2019-05-23T05:44:06.905Z,11.25
2019-05-23T05:49:12.178Z,11.38
2019-05-23T05:54:17.351Z,11.11
2019-05-23T05:59:22.703Z,10.88
2019-05-23T06:04:28.161Z,11.04
2019-05-23T06:09:35.163Z,11.31
2019-05-23T06:14:41.067Z,11.64
2019-05-23T06:19:46.441Z,11.61
2019-05-23T06:24:56.088Z,11.64
2019-05-23T06:30:00.379Z,11.51
2019-05-23T06:35:07.437Z,12.00
2019-05-23T06:40:13.904Z,11.95
2019-05-23T06:45:19.882Z,12.00
2019-05-23T06:50:26.041Z,12.36
2019-05-23T06:55:31.728Z,12.46
2019-05-23T07:00:37.524Z,12.44
2019-05-23T07:05:43.945Z,12.61
2019-05-23T07:10:49.279Z,12.83
2019-05-23T07:15:54.662Z,13.46
2019-05-23T07:20:59.924Z,14.66
2019-05-23T07:26:05.385Z,15.22
2019-05-23T07:31:10.829Z,16.05
2019-05-23T07:36:16.440Z,16.88
2019-05-23T07:41:21.928Z,15.20
2019-05-23T07:46:48.097Z,16.75
2019-05-23T07:51:59.874Z,16.31
2019-05-23T07:57:09.002Z,16.03
2019-05-23T08:02:25.889Z,15.50
2019-05-23T08:07:33.536Z,16.61
2019-05-23T08:12:40.565Z,17.18
2019-05-23T08:17:46.464Z,15.75
2019-05-23T08:22:51.909Z,16.68
2019-05-23T08:27:57.092Z,16.29
2019-05-23T08:33:03.103Z,17.05
2019-05-23T08:38:08.962Z,16.84
2019-05-23T08:43:14.595Z,17.00
2019-05-23T08:48:21.539Z,16.86
2019-05-23T08:53:27.137Z,16.89
2019-05-23T08:58:32.564Z,17.38
2019-05-23T09:03:38.652Z,17.01
2019-05-23T09:08:44.365Z,17.38
2019-05-23T09:13:49.647Z,17.33
2019-05-23T09:18:55.279Z,16.80
2019-05-23T09:24:00.607Z,16.98
2019-05-23T09:29:07.682Z,17.71
2019-05-23T09:34:13.047Z,17.87
2019-05-23T09:39:22.258Z,17.25
2019-05-23T09:44:27.566Z,17.17
2019-05-23T09:49:33.054Z,17.78
2019-05-23T09:54:39.708Z,18.28
2019-05-23T09:59:44.839Z,17.45
2019-05-23T10:04:50.328Z,17.26
2019-05-23T10:09:55.559Z,17.78
2019-05-23T10:15:01.748Z,17.89
2019-05-23T10:20:08.390Z,18.30
2019-05-23T10:25:13.643Z,17.83
2019-05-23T10:30:20.863Z,18.38
2019-05-23T10:35:26.695Z,17.79
2019-05-23T10:40:32.339Z,18.54
2019-05-23T10:45:37.992Z,18.12
2019-05-23T10:50:45.593Z,18.63
2019-05-23T10:55:50.995Z,18.29
2019-05-23T11:00:56.240Z,18.51
2019-05-23T11:06:15.064Z,19.08
2019-05-23T11:11:13.933Z,19.10
2019-05-23T11:16:16.419Z,18.99
2019-05-23T11:21:22.126Z,18.89
2019-05-23T11:26:27.582Z,18.51
2019-05-23T11:31:33.612Z,18.73
2019-05-23T11:36:39.010Z,18.99
2019-05-23T11:41:45.385Z,19.25
2019-05-23T11:46:51.299Z,20.19
2019-05-23T11:51:56.938Z,19.52
2019-05-23T11:57:02.788Z,19.37
2019-05-23T12:02:31.612Z,19.62
2019-05-23T12:07:38.625Z,19.76
2019-05-23T12:12:43.943Z,19.52
2019-05-23T12:17:50.022Z,19.30
2019-05-23T12:22:55.555Z,19.74
2019-05-23T12:28:01.613Z,19.69
2019-05-23T12:33:35.530Z,19.43
2019-05-23T12:38:44.395Z,19.37
2019-05-23T12:43:49.623Z,19.20
2019-05-23T12:49:02.150Z,19.72
2019-05-23T12:54:08.165Z,19.83
2019-05-23T12:59:14.406Z,19.17
2019-05-23T13:04:20.906Z,19.77
2019-05-23T13:09:26.919Z,19.78
2019-05-23T13:14:33.597Z,20.19
2019-05-23T13:19:43.103Z,19.93
2019-05-23T13:24:52.571Z,19.91
2019-05-23T13:29:58.760Z,19.69
2019-05-23T13:35:05.773Z,20.10
2019-05-23T13:40:11.922Z,20.40
2019-05-23T13:45:19.675Z,20.21
2019-05-23T13:50:25.795Z,19.99
2019-05-23T13:55:33.342Z,19.87
2019-05-23T14:00:42.084Z,20.24
2019-05-23T14:05:49.331Z,20.06
2019-05-23T14:10:55.203Z,20.36
2019-05-23T14:16:01.371Z,20.49
2019-05-23T14:21:06.795Z,20.35
2019-05-23T14:26:14.363Z,20.26
2019-05-23T14:31:23.170Z,20.29
2019-05-23T14:36:45.958Z,20.30
2019-05-23T14:41:57.732Z,19.84
2019-05-23T14:47:23.333Z,20.14
2019-05-23T14:52:35.523Z,19.81
2019-05-23T14:57:41.493Z,20.32
2019-05-23T15:02:47.649Z,20.17
2019-05-23T15:07:56.135Z,20.03
2019-05-23T15:13:02.879Z,20.33
2019-05-23T15:18:09.791Z,20.14
2019-05-23T15:23:14.995Z,20.27
2019-05-23T15:28:20.617Z,19.61
2019-05-23T15:33:25.937Z,19.66
2019-05-23T15:38:31.120Z,19.97
2019-05-23T15:43:36.397Z,19.69
2019-05-23T15:48:43.920Z,19.89
2019-05-23T15:54:08.134Z,19.72
2019-05-23T15:59:24.322Z,19.20
2019-05-23T16:04:30.027Z,19.26
2019-05-23T16:09:36.970Z,18.84
2019-05-23T16:14:42.658Z,18.86
2019-05-23T16:19:47.846Z,18.81
2019-05-23T16:24:53.155Z,18.83
2019-05-23T16:29:58.685Z,18.76
2019-05-23T16:35:04.528Z,18.92
2019-05-23T16:40:10.337Z,18.75
2019-05-23T16:45:22.275Z,18.49
2019-05-23T16:50:27.515Z,18.35
2019-05-23T16:55:45.541Z,18.52
2019-05-23T17:01:00.761Z,18.55
2019-05-23T17:06:12.957Z,18.48
2019-05-23T17:11:36.836Z,18.42
2019-05-23T17:17:05.460Z,18.40
2019-05-23T17:22:27.644Z,18.81
2019-05-23T17:28:07.229Z,18.74
2019-05-23T17:33:14.429Z,18.85
2019-05-23T17:38:19.991Z,18.65
2019-05-23T17:43:25.178Z,18.60
2019-05-23T17:48:30.761Z,18.68
2019-05-23T17:53:38.379Z,18.84
2019-05-23T17:58:43.892Z,18.39
2019-05-23T18:03:49.488Z,18.24
2019-05-23T18:08:55.094Z,18.01
2019-05-23T18:14:00.829Z,18.02
2019-05-23T18:19:06.429Z,17.77
2019-05-23T18:24:11.764Z,18.02
2019-05-23T18:29:17.554Z,17.95
2019-05-23T18:34:24.996Z,17.66
2019-05-23T18:39:30.798Z,17.62
2019-05-23T18:44:36.385Z,17.15
2019-05-23T18:49:41.827Z,17.06
2019-05-23T18:54:46.991Z,16.95
2019-05-23T18:59:52.321Z,16.88
2019-05-23T19:04:59.014Z,16.75
2019-05-23T19:10:05.269Z,16.68
2019-05-23T19:15:11.065Z,15.89
2019-05-23T19:20:16.658Z,15.52
2019-05-23T19:25:23.990Z,15.45
2019-05-23T19:30:29.385Z,15.28
2019-05-23T19:35:37.463Z,15.08
2019-05-23T19:40:42.658Z,15.27
2019-05-23T19:45:48.021Z,14.40
2019-05-23T19:50:54.120Z,14.30
2019-05-23T19:55:59.399Z,14.24
2019-05-23T20:01:06.789Z,14.21
2019-05-23T20:06:14.231Z,14.03
2019-05-23T20:11:19.662Z,13.94
2019-05-23T20:16:24.980Z,13.80
2019-05-23T20:21:30.320Z,13.66
2019-05-23T20:26:35.648Z,13.52
2019-05-23T20:31:40.821Z,13.38
2019-05-23T20:36:45.990Z,13.40
2019-05-23T20:41:51.235Z,13.30
2019-05-23T20:46:56.420Z,13.09
2019-05-23T20:52:01.833Z,13.07
2019-05-23T20:57:07.015Z,12.85
2019-05-23T21:02:12.902Z,12.67
2019-05-23T21:07:18.592Z,12.56
2019-05-23T21:12:30.244Z,12.38
2019-05-23T21:17:31.186Z,12.30
2019-05-23T21:22:36.707Z,12.15
2019-05-23T21:27:41.902Z,12.04
2019-05-23T21:32:47.294Z,12.02
2019-05-23T21:37:52.663Z,11.69
2019-05-23T21:42:58.004Z,11.47
2019-05-23T21:48:03.574Z,11.51
2019-05-23T21:53:10.540Z,11.14
2019-05-23T21:58:16.085Z,11.37
2019-05-23T22:03:25.382Z,11.30
2019-05-23T22:08:31.500Z,10.83
2019-05-23T22:13:36.958Z,10.94
2019-05-23T22:18:42.120Z,10.50
2019-05-23T22:23:47.611Z,10.55
2019-05-23T22:28:52.934Z,10.25
2019-05-23T22:34:05.435Z,10.31
2019-05-23T22:39:10.818Z,10.19
2019-05-23T22:44:16.154Z,10.32
2019-05-23T22:49:21.445Z,9.72
2019-05-23T22:54:26.908Z,9.56
2019-05-23T22:59:32.326Z,9.86
2019-05-23T23:04:37.681Z,10.03
2019-05-23T23:09:43.288Z,9.94
2019-05-23T23:14:48.543Z,9.59
2019-05-23T23:19:53.931Z,9.12
2019-05-23T23:24:59.297Z,8.95
2019-05-23T23:30:04.974Z,9.19
2019-05-23T23:35:10.214Z,9.04
2019-05-23T23:40:15.906Z,8.84
2019-05-23T23:45:40.012Z,9.09
2019-05-23T23:51:02.989Z,8.73
2019-05-23T23:56:26.307Z,8.51
